sensor_id;sensor_type;location;lat;lon;timestamp;P1;durP1;ratioP1;P2;durP2;ratioP2
21741;SDS011;11033;47.490;11.116;2024-01-30T00:00:28;2.20;;;1.00;;
21741;SDS011;11033;47.490;11.116;2024-01-30T00:02:54;1.08;;;0.95;;
21741;SDS011;11033;47.490;11.116;2024-01-30T00:05:19;1.70;;;1.15;;
21741;SDS011;11033;47.490;11.116;2024-01-30T00:07:44;1.10;;;1.00;;
21741;SDS011;11033;47.490;11.116;2024-01-30T00:10:10;0.88;;;0.88;;
21741;SDS011;11033;47.490;11.116;2024-01-30T00:12:35;1.65;;;1.20;;
21741;SDS011;11033;47.490;11.116;2024-01-30T00:15:00;1.10;;;1.00;;
21741;SDS011;11033;47.490;11.116;2024-01-30T00:17:26;1.60;;;1.17;;
21741;SDS011;11033;47.490;11.116;2024-01-30T00:19:51;1.25;;;1.17;;
21741;SDS011;11033;47.490;11.116;2024-01-30T00:22:17;1.20;;;1.10;;
21741;SDS011;11033;47.490;11.116;2024-01-30T00:24:42;1.00;;;0.85;;
21741;SDS011;11033;47.490;11.116;2024-01-30T00:27:07;1.30;;;1.20;;
21741;SDS011;11033;47.490;11.116;2024-01-30T00:29:33;1.42;;;1.00;;
21741;SDS011;11033;47.490;11.116;2024-01-30T00:31:59;1.20;;;1.10;;
21741;SDS011;11033;47.490;11.116;2024-01-30T00:34:25;1.23;;;1.13;;
21741;SDS011;11033;47.490;11.116;2024-01-30T00:36:50;0.82;;;0.82;;
21741;SDS011;11033;47.490;11.116;2024-01-30T00:39:15;2.33;;;1.00;;
21741;SDS011;11033;47.490;11.116;2024-01-30T00:41:41;1.77;;;1.20;;
21741;SDS011;11033;47.490;11.116;2024-01-30T00:44:06;0.90;;;0.85;;
21741;SDS011;11033;47.490;11.116;2024-01-30T00:46:32;1.30;;;1.10;;
21741;SDS011;11033;47.490;11.116;2024-01-30T00:48:57;2.03;;;0.80;;
21741;SDS011;11033;47.490;11.116;2024-01-30T00:51:22;1.00;;;0.90;;
21741;SDS011;11033;47.490;11.116;2024-01-30T00:53:48;1.92;;;1.15;;
21741;SDS011;11033;47.490;11.116;2024-01-30T00:56:13;1.15;;;0.90;;
21741;SDS011;11033;47.490;11.116;2024-01-30T00:58:38;1.40;;;0.90;;
21741;SDS011;11033;47.490;11.116;2024-01-30T01:01:04;1.23;;;1.00;;
21741;SDS011;11033;47.490;11.116;2024-01-30T01:03:29;1.10;;;1.00;;
21741;SDS011;11033;47.490;11.116;2024-01-30T01:05:54;1.92;;;1.30;;
21741;SDS011;11033;47.490;11.116;2024-01-30T01:08:20;1.25;;;1.02;;
21741;SDS011;11033;47.490;11.116;2024-01-30T01:10:45;2.10;;;1.00;;
21741;SDS011;11033;47.490;11.116;2024-01-30T01:13:10;1.40;;;0.95;;
21741;SDS011;11033;47.490;11.116;2024-01-30T01:15:35;1.10;;;0.90;;
21741;SDS011;11033;47.490;11.116;2024-01-30T01:18:02;1.02;;;0.90;;
21741;SDS011;11033;47.490;11.116;2024-01-30T01:20:27;0.80;;;0.80;;
21741;SDS011;11033;47.490;11.116;2024-01-30T01:22:53;2.00;;;0.93;;
21741;SDS011;11033;47.490;11.116;2024-01-30T01:25:19;1.30;;;1.20;;
21741;SDS011;11033;47.490;11.116;2024-01-30T01:27:44;1.00;;;0.90;;
21741;SDS011;11033;47.490;11.116;2024-01-30T01:30:16;2.08;;;1.05;;
21741;SDS011;11033;47.490;11.116;2024-01-30T01:32:46;0.82;;;0.82;;
21741;SDS011;11033;47.490;11.116;2024-01-30T01:35:19;0.98;;;0.88;;
21741;SDS011;11033;47.490;11.116;2024-01-30T01:37:50;1.10;;;1.00;;
21741;SDS011;11033;47.490;11.116;2024-01-30T01:40:20;1.10;;;0.90;;
21741;SDS011;11033;47.490;11.116;2024-01-30T01:42:46;1.10;;;1.00;;
21741;SDS011;11033;47.490;11.116;2024-01-30T01:45:12;1.13;;;1.02;;
21741;SDS011;11033;47.490;11.116;2024-01-30T01:47:37;2.08;;;1.02;;
21741;SDS011;11033;47.490;11.116;2024-01-30T01:50:03;0.90;;;0.90;;
21741;SDS011;11033;47.490;11.116;2024-01-30T01:52:28;1.38;;;1.05;;
21741;SDS011;11033;47.490;11.116;2024-01-30T01:54:54;1.20;;;0.85;;
21741;SDS011;11033;47.490;11.116;2024-01-30T01:57:19;0.88;;;0.88;;
21741;SDS011;11033;47.490;11.116;2024-01-30T01:59:45;0.93;;;0.80;;
21741;SDS011;11033;47.490;11.116;2024-01-30T02:02:10;1.95;;;0.90;;
21741;SDS011;11033;47.490;11.116;2024-01-30T02:04:37;0.80;;;0.80;;
21741;SDS011;11033;47.490;11.116;2024-01-30T02:07:03;1.10;;;0.85;;
21741;SDS011;11033;47.490;11.116;2024-01-30T02:09:28;1.17;;;1.02;;
21741;SDS011;11033;47.490;11.116;2024-01-30T02:11:53;1.15;;;0.90;;
21741;SDS011;11033;47.490;11.116;2024-01-30T02:14:20;1.60;;;0.90;;
21741;SDS011;11033;47.490;11.116;2024-01-30T02:16:45;1.83;;;0.88;;
21741;SDS011;11033;47.490;11.116;2024-01-30T02:19:10;1.67;;;0.90;;
21741;SDS011;11033;47.490;11.116;2024-01-30T02:21:36;0.80;;;0.80;;
21741;SDS011;11033;47.490;11.116;2024-01-30T02:24:01;1.15;;;0.90;;
21741;SDS011;11033;47.490;11.116;2024-01-30T02:26:28;1.95;;;0.90;;
21741;SDS011;11033;47.490;11.116;2024-01-30T02:28:53;0.70;;;0.70;;
21741;SDS011;11033;47.490;11.116;2024-01-30T02:31:19;1.23;;;0.80;;
21741;SDS011;11033;47.490;11.116;2024-01-30T02:33:44;0.95;;;0.73;;
21741;SDS011;11033;47.490;11.116;2024-01-30T02:36:09;0.80;;;0.80;;
21741;SDS011;11033;47.490;11.116;2024-01-30T02:38:34;0.98;;;0.70;;
21741;SDS011;11033;47.490;11.116;2024-01-30T02:41:00;0.80;;;0.80;;
21741;SDS011;11033;47.490;11.116;2024-01-30T02:43:25;0.85;;;0.80;;
21741;SDS011;11033;47.490;11.116;2024-01-30T02:45:50;0.80;;;0.80;;
21741;SDS011;11033;47.490;11.116;2024-01-30T02:48:16;0.65;;;0.60;;
21741;SDS011;11033;47.490;11.116;2024-01-30T02:50:41;1.88;;;1.08;;
21741;SDS011;11033;47.490;11.116;2024-01-30T02:53:06;0.93;;;0.93;;
21741;SDS011;11033;47.490;11.116;2024-01-30T02:55:31;1.00;;;0.82;;
21741;SDS011;11033;47.490;11.116;2024-01-30T02:57:57;1.00;;;0.90;;
21741;SDS011;11033;47.490;11.116;2024-01-30T03:00:23;0.98;;;0.85;;
21741;SDS011;11033;47.490;11.116;2024-01-30T03:02:49;1.30;;;0.90;;
21741;SDS011;11033;47.490;11.116;2024-01-30T03:05:14;1.15;;;1.00;;
21741;SDS011;11033;47.490;11.116;2024-01-30T03:07:39;1.08;;;0.77;;
21741;SDS011;11033;47.490;11.116;2024-01-30T03:10:05;0.70;;;0.70;;
21741;SDS011;11033;47.490;11.116;2024-01-30T03:12:31;0.90;;;0.90;;
21741;SDS011;11033;47.490;11.116;2024-01-30T03:14:56;0.70;;;0.70;;
21741;SDS011;11033;47.490;11.116;2024-01-30T03:17:21;3.20;;;0.90;;
21741;SDS011;11033;47.490;11.116;2024-01-30T03:19:47;1.17;;;0.90;;
21741;SDS011;11033;47.490;11.116;2024-01-30T03:22:12;0.80;;;0.80;;
21741;SDS011;11033;47.490;11.116;2024-01-30T03:24:38;0.75;;;0.60;;
21741;SDS011;11033;47.490;11.116;2024-01-30T03:27:03;1.17;;;0.70;;
21741;SDS011;11033;47.490;11.116;2024-01-30T03:29:28;0.70;;;0.70;;
21741;SDS011;11033;47.490;11.116;2024-01-30T03:31:54;0.77;;;0.77;;
21741;SDS011;11033;47.490;11.116;2024-01-30T03:34:19;0.98;;;0.90;;
21741;SDS011;11033;47.490;11.116;2024-01-30T03:36:44;0.75;;;0.70;;
21741;SDS011;11033;47.490;11.116;2024-01-30T03:39:10;0.80;;;0.60;;
21741;SDS011;11033;47.490;11.116;2024-01-30T03:41:35;0.68;;;0.63;;
21741;SDS011;11033;47.490;11.116;2024-01-30T03:44:01;1.05;;;0.90;;
21741;SDS011;11033;47.490;11.116;2024-01-30T03:46:26;0.50;;;0.50;;
21741;SDS011;11033;47.490;11.116;2024-01-30T03:48:52;1.20;;;0.70;;
21741;SDS011;11033;47.490;11.116;2024-01-30T03:51:17;0.50;;;0.50;;
21741;SDS011;11033;47.490;11.116;2024-01-30T03:53:43;0.70;;;0.70;;
21741;SDS011;11033;47.490;11.116;2024-01-30T03:56:08;0.73;;;0.60;;
21741;SDS011;11033;47.490;11.116;2024-01-30T03:58:34;2.08;;;0.90;;
21741;SDS011;11033;47.490;11.116;2024-01-30T04:00:59;0.80;;;0.70;;
21741;SDS011;11033;47.490;11.116;2024-01-30T04:03:25;0.70;;;0.70;;
21741;SDS011;11033;47.490;11.116;2024-01-30T04:05:53;0.93;;;0.75;;
21741;SDS011;11033;47.490;11.116;2024-01-30T04:08:19;0.75;;;0.75;;
21741;SDS011;11033;47.490;11.116;2024-01-30T04:10:44;0.98;;;0.88;;
21741;SDS011;11033;47.490;11.116;2024-01-30T04:13:10;0.73;;;0.70;;
21741;SDS011;11033;47.490;11.116;2024-01-30T04:15:35;0.88;;;0.88;;
21741;SDS011;11033;47.490;11.116;2024-01-30T04:18:00;8.30;;;0.93;;
21741;SDS011;11033;47.490;11.116;2024-01-30T04:20:26;1.98;;;0.88;;
21741;SDS011;11033;47.490;11.116;2024-01-30T04:22:51;0.60;;;0.60;;
21741;SDS011;11033;47.490;11.116;2024-01-30T04:25:16;0.73;;;0.73;;
21741;SDS011;11033;47.490;11.116;2024-01-30T04:27:42;0.77;;;0.77;;
21741;SDS011;11033;47.490;11.116;2024-01-30T04:30:07;0.80;;;0.80;;
21741;SDS011;11033;47.490;11.116;2024-01-30T04:32:33;2.65;;;0.80;;
21741;SDS011;11033;47.490;11.116;2024-01-30T04:34:58;0.80;;;0.70;;
21741;SDS011;11033;47.490;11.116;2024-01-30T04:37:23;1.13;;;0.90;;
21741;SDS011;11033;47.490;11.116;2024-01-30T04:39:49;2.38;;;0.80;;
21741;SDS011;11033;47.490;11.116;2024-01-30T04:42:15;0.73;;;0.70;;
21741;SDS011;11033;47.490;11.116;2024-01-30T04:44:40;1.20;;;1.10;;
21741;SDS011;11033;47.490;11.116;2024-01-30T04:47:05;2.88;;;0.88;;
21741;SDS011;11033;47.490;11.116;2024-01-30T04:49:33;2.13;;;0.90;;
21741;SDS011;11033;47.490;11.116;2024-01-30T04:51:59;2.90;;;0.95;;
21741;SDS011;11033;47.490;11.116;2024-01-30T04:54:24;0.98;;;0.90;;
21741;SDS011;11033;47.490;11.116;2024-01-30T04:56:50;1.23;;;0.90;;
21741;SDS011;11033;47.490;11.116;2024-01-30T04:59:16;1.67;;;1.00;;
21741;SDS011;11033;47.490;11.116;2024-01-30T05:01:41;1.55;;;0.90;;
21741;SDS011;11033;47.490;11.116;2024-01-30T05:04:09;0.70;;;0.70;;
21741;SDS011;11033;47.490;11.116;2024-01-30T05:06:34;0.93;;;0.82;;
21741;SDS011;11033;47.490;11.116;2024-01-30T05:09:00;2.05;;;0.85;;
21741;SDS011;11033;47.490;11.116;2024-01-30T05:11:25;0.60;;;0.60;;
21741;SDS011;11033;47.490;11.116;2024-01-30T05:13:50;0.70;;;0.70;;
21741;SDS011;11033;47.490;11.116;2024-01-30T05:16:15;1.63;;;0.80;;
21741;SDS011;11033;47.490;11.116;2024-01-30T05:18:41;0.82;;;0.77;;
21741;SDS011;11033;47.490;11.116;2024-01-30T05:21:06;1.15;;;0.70;;
21741;SDS011;11033;47.490;11.116;2024-01-30T05:23:31;0.80;;;0.70;;
21741;SDS011;11033;47.490;11.116;2024-01-30T05:25:56;0.75;;;0.75;;
21741;SDS011;11033;47.490;11.116;2024-01-30T05:28:22;1.23;;;0.80;;
21741;SDS011;11033;47.490;11.116;2024-01-30T05:30:47;1.65;;;0.73;;
21741;SDS011;11033;47.490;11.116;2024-01-30T05:33:12;1.08;;;0.93;;
21741;SDS011;11033;47.490;11.116;2024-01-30T05:35:38;0.98;;;0.80;;
21741;SDS011;11033;47.490;11.116;2024-01-30T05:38:03;1.52;;;1.10;;
21741;SDS011;11033;47.490;11.116;2024-01-30T05:40:29;1.02;;;1.00;;
21741;SDS011;11033;47.490;11.116;2024-01-30T05:42:55;0.90;;;0.90;;
21741;SDS011;11033;47.490;11.116;2024-01-30T05:45:20;1.80;;;1.33;;
21741;SDS011;11033;47.490;11.116;2024-01-30T05:47:45;1.77;;;1.10;;
21741;SDS011;11033;47.490;11.116;2024-01-30T05:50:11;1.50;;;0.80;;
21741;SDS011;11033;47.490;11.116;2024-01-30T05:52:36;1.88;;;1.15;;
21741;SDS011;11033;47.490;11.116;2024-01-30T05:55:01;2.63;;;1.25;;
21741;SDS011;11033;47.490;11.116;2024-01-30T05:57:28;1.98;;;1.20;;
21741;SDS011;11033;47.490;11.116;2024-01-30T05:59:53;1.40;;;1.15;;
21741;SDS011;11033;47.490;11.116;2024-01-30T06:02:18;2.22;;;1.10;;
21741;SDS011;11033;47.490;11.116;2024-01-30T06:04:43;2.70;;;1.10;;
21741;SDS011;11033;47.490;11.116;2024-01-30T06:07:09;2.03;;;1.00;;
21741;SDS011;11033;47.490;11.116;2024-01-30T06:09:34;4.30;;;1.13;;
21741;SDS011;11033;47.490;11.116;2024-01-30T06:12:00;1.10;;;1.00;;
21741;SDS011;11033;47.490;11.116;2024-01-30T06:14:25;0.93;;;0.80;;
21741;SDS011;11033;47.490;11.116;2024-01-30T06:16:50;1.67;;;0.80;;
21741;SDS011;11033;47.490;11.116;2024-01-30T06:19:16;2.08;;;1.00;;
21741;SDS011;11033;47.490;11.116;2024-01-30T06:21:41;2.17;;;1.20;;
21741;SDS011;11033;47.490;11.116;2024-01-30T06:24:06;1.67;;;0.93;;
21741;SDS011;11033;47.490;11.116;2024-01-30T06:26:32;1.27;;;1.13;;
21741;SDS011;11033;47.490;11.116;2024-01-30T06:28:57;2.70;;;1.33;;
21741;SDS011;11033;47.490;11.116;2024-01-30T06:31:22;2.78;;;1.50;;
21741;SDS011;11033;47.490;11.116;2024-01-30T06:33:49;2.28;;;1.45;;
21741;SDS011;11033;47.490;11.116;2024-01-30T06:36:14;2.50;;;1.40;;
21741;SDS011;11033;47.490;11.116;2024-01-30T06:38:40;2.10;;;1.48;;
21741;SDS011;11033;47.490;11.116;2024-01-30T06:41:06;4.65;;;1.55;;
21741;SDS011;11033;47.490;11.116;2024-01-30T06:43:31;1.33;;;1.23;;
21741;SDS011;11033;47.490;11.116;2024-01-30T06:45:56;1.42;;;1.20;;
21741;SDS011;11033;47.490;11.116;2024-01-30T06:48:22;1.92;;;1.52;;
21741;SDS011;11033;47.490;11.116;2024-01-30T06:50:47;3.67;;;2.28;;
21741;SDS011;11033;47.490;11.116;2024-01-30T06:53:14;8.38;;;3.38;;
21741;SDS011;11033;47.490;11.116;2024-01-30T06:55:39;9.23;;;3.65;;
21741;SDS011;11033;47.490;11.116;2024-01-30T06:58:04;7.72;;;3.83;;
21741;SDS011;11033;47.490;11.116;2024-01-30T07:00:30;7.85;;;3.00;;
21741;SDS011;11033;47.490;11.116;2024-01-30T07:02:55;5.05;;;2.10;;
21741;SDS011;11033;47.490;11.116;2024-01-30T07:05:21;3.63;;;2.25;;
21741;SDS011;11033;47.490;11.116;2024-01-30T07:07:47;3.45;;;2.50;;
21741;SDS011;11033;47.490;11.116;2024-01-30T07:10:12;2.55;;;1.77;;
21741;SDS011;11033;47.490;11.116;2024-01-30T07:12:37;2.17;;;1.50;;
21741;SDS011;11033;47.490;11.116;2024-01-30T07:15:03;3.75;;;1.85;;
21741;SDS011;11033;47.490;11.116;2024-01-30T07:17:29;2.40;;;1.45;;
21741;SDS011;11033;47.490;11.116;2024-01-30T07:19:54;3.08;;;1.40;;
21741;SDS011;11033;47.490;11.116;2024-01-30T07:22:19;1.77;;;1.10;;
21741;SDS011;11033;47.490;11.116;2024-01-30T07:24:44;1.67;;;1.50;;
21741;SDS011;11033;47.490;11.116;2024-01-30T07:27:12;2.08;;;1.60;;
21741;SDS011;11033;47.490;11.116;2024-01-30T07:29:38;2.20;;;1.48;;
21741;SDS011;11033;47.490;11.116;2024-01-30T07:32:03;2.55;;;1.50;;
21741;SDS011;11033;47.490;11.116;2024-01-30T07:34:29;1.40;;;1.30;;
21741;SDS011;11033;47.490;11.116;2024-01-30T07:36:54;1.50;;;1.17;;
21741;SDS011;11033;47.490;11.116;2024-01-30T07:39:19;1.63;;;1.50;;
21741;SDS011;11033;47.490;11.116;2024-01-30T07:41:44;1.73;;;1.50;;
21741;SDS011;11033;47.490;11.116;2024-01-30T07:44:10;1.98;;;1.60;;
21741;SDS011;11033;47.490;11.116;2024-01-30T07:46:35;4.05;;;1.42;;
21741;SDS011;11033;47.490;11.116;2024-01-30T07:49:00;1.50;;;1.20;;
21741;SDS011;11033;47.490;11.116;2024-01-30T07:51:26;2.35;;;1.40;;
21741;SDS011;11033;47.490;11.116;2024-01-30T07:53:53;2.00;;;1.20;;
21741;SDS011;11033;47.490;11.116;2024-01-30T07:56:19;4.57;;;1.63;;
21741;SDS011;11033;47.490;11.116;2024-01-30T07:58:44;2.20;;;1.20;;
21741;SDS011;11033;47.490;11.116;2024-01-30T08:01:09;1.42;;;1.20;;
21741;SDS011;11033;47.490;11.116;2024-01-30T08:03:35;2.05;;;1.10;;
21741;SDS011;11033;47.490;11.116;2024-01-30T08:06:01;1.38;;;1.10;;
21741;SDS011;11033;47.490;11.116;2024-01-30T08:08:27;1.50;;;1.20;;
21741;SDS011;11033;47.490;11.116;2024-01-30T08:10:53;1.15;;;0.77;;
21741;SDS011;11033;47.490;11.116;2024-01-30T08:13:18;1.35;;;1.00;;
21741;SDS011;11033;47.490;11.116;2024-01-30T08:15:43;1.50;;;0.90;;
21741;SDS011;11033;47.490;11.116;2024-01-30T08:18:09;1.30;;;1.13;;
21741;SDS011;11033;47.490;11.116;2024-01-30T08:20:34;2.45;;;1.20;;
21741;SDS011;11033;47.490;11.116;2024-01-30T08:22:59;5.55;;;1.80;;
21741;SDS011;11033;47.490;11.116;2024-01-30T08:25:25;3.80;;;1.30;;
21741;SDS011;11033;47.490;11.116;2024-01-30T08:27:51;1.38;;;1.27;;
21741;SDS011;11033;47.490;11.116;2024-01-30T08:30:16;1.60;;;1.25;;
21741;SDS011;11033;47.490;11.116;2024-01-30T08:32:41;2.50;;;1.20;;
21741;SDS011;11033;47.490;11.116;2024-01-30T08:35:07;1.35;;;1.05;;
21741;SDS011;11033;47.490;11.116;2024-01-30T08:37:33;4.63;;;1.20;;
21741;SDS011;11033;47.490;11.116;2024-01-30T08:39:58;1.30;;;1.20;;
21741;SDS011;11033;47.490;11.116;2024-01-30T08:42:24;2.45;;;2.10;;
21741;SDS011;11033;47.490;11.116;2024-01-30T08:44:50;2.38;;;1.80;;
21741;SDS011;11033;47.490;11.116;2024-01-30T08:47:17;13.02;;;5.43;;
21741;SDS011;11033;47.490;11.116;2024-01-30T08:49:43;12.70;;;4.95;;
21741;SDS011;11033;47.490;11.116;2024-01-30T08:52:09;7.00;;;3.60;;
21741;SDS011;11033;47.490;11.116;2024-01-30T08:54:35;15.90;;;7.07;;
21741;SDS011;11033;47.490;11.116;2024-01-30T08:57:00;11.77;;;5.00;;
21741;SDS011;11033;47.490;11.116;2024-01-30T08:59:26;12.35;;;5.82;;
21741;SDS011;11033;47.490;11.116;2024-01-30T09:01:51;16.13;;;6.55;;
21741;SDS011;11033;47.490;11.116;2024-01-30T09:04:19;19.90;;;6.95;;
21741;SDS011;11033;47.490;11.116;2024-01-30T09:06:45;18.48;;;6.72;;
21741;SDS011;11033;47.490;11.116;2024-01-30T09:09:10;13.32;;;5.47;;
21741;SDS011;11033;47.490;11.116;2024-01-30T09:11:35;9.95;;;4.60;;
21741;SDS011;11033;47.490;11.116;2024-01-30T09:14:01;10.20;;;4.47;;
21741;SDS011;11033;47.490;11.116;2024-01-30T09:16:26;14.95;;;6.82;;
21741;SDS011;11033;47.490;11.116;2024-01-30T09:18:51;14.70;;;6.47;;
21741;SDS011;11033;47.490;11.116;2024-01-30T09:21:16;6.07;;;3.25;;
21741;SDS011;11033;47.490;11.116;2024-01-30T09:23:42;14.70;;;5.88;;
21741;SDS011;11033;47.490;11.116;2024-01-30T09:26:07;19.50;;;8.80;;
21741;SDS011;11033;47.490;11.116;2024-01-30T09:28:32;2.83;;;1.67;;
21741;SDS011;11033;47.490;11.116;2024-01-30T09:30:58;11.73;;;5.05;;
21741;SDS011;11033;47.490;11.116;2024-01-30T09:33:23;8.27;;;4.05;;
21741;SDS011;11033;47.490;11.116;2024-01-30T09:35:48;7.47;;;3.90;;
21741;SDS011;11033;47.490;11.116;2024-01-30T09:38:13;7.00;;;3.58;;
21741;SDS011;11033;47.490;11.116;2024-01-30T09:40:39;5.25;;;3.28;;
21741;SDS011;11033;47.490;11.116;2024-01-30T09:43:04;3.78;;;2.25;;
21741;SDS011;11033;47.490;11.116;2024-01-30T09:45:30;9.57;;;3.65;;
21741;SDS011;11033;47.490;11.116;2024-01-30T09:47:58;7.90;;;4.47;;
21741;SDS011;11033;47.490;11.116;2024-01-30T09:50:24;12.85;;;6.15;;
21741;SDS011;11033;47.490;11.116;2024-01-30T09:52:49;6.88;;;3.53;;
21741;SDS011;11033;47.490;11.116;2024-01-30T09:55:16;6.03;;;3.55;;
21741;SDS011;11033;47.490;11.116;2024-01-30T09:57:42;8.10;;;4.03;;
21741;SDS011;11033;47.490;11.116;2024-01-30T10:00:07;5.70;;;2.13;;
21741;SDS011;11033;47.490;11.116;2024-01-30T10:02:34;3.10;;;1.95;;
21741;SDS011;11033;47.490;11.116;2024-01-30T10:05:02;8.48;;;5.22;;
21741;SDS011;11033;47.490;11.116;2024-01-30T10:07:27;5.88;;;3.08;;
21741;SDS011;11033;47.490;11.116;2024-01-30T10:09:53;4.25;;;2.90;;
21741;SDS011;11033;47.490;11.116;2024-01-30T10:12:20;12.23;;;6.45;;
21741;SDS011;11033;47.490;11.116;2024-01-30T10:14:45;10.50;;;6.00;;
21741;SDS011;11033;47.490;11.116;2024-01-30T10:17:11;8.33;;;4.50;;
21741;SDS011;11033;47.490;11.116;2024-01-30T10:19:37;5.15;;;1.70;;
21741;SDS011;11033;47.490;11.116;2024-01-30T10:22:04;3.13;;;1.40;;
21741;SDS011;11033;47.490;11.116;2024-01-30T10:24:30;3.83;;;1.10;;
21741;SDS011;11033;47.490;11.116;2024-01-30T10:26:56;6.45;;;1.70;;
21741;SDS011;11033;47.490;11.116;2024-01-30T10:29:21;10.27;;;6.03;;
21741;SDS011;11033;47.490;11.116;2024-01-30T10:32:20;1.58;;;1.48;;
21741;SDS011;11033;47.490;11.116;2024-01-30T10:34:40;4.25;;;1.30;;
21741;SDS011;11033;47.490;11.116;2024-01-30T10:37:09;4.43;;;1.70;;
21741;SDS011;11033;47.490;11.116;2024-01-30T10:39:38;4.30;;;1.60;;
21741;SDS011;11033;47.490;11.116;2024-01-30T10:42:04;4.82;;;1.88;;
21741;SDS011;11033;47.490;11.116;2024-01-30T10:44:33;5.10;;;2.70;;
21741;SDS011;11033;47.490;11.116;2024-01-30T10:47:06;5.85;;;2.72;;
21741;SDS011;11033;47.490;11.116;2024-01-30T10:49:36;5.80;;;1.60;;
21741;SDS011;11033;47.490;11.116;2024-01-30T10:52:03;6.55;;;1.65;;
21741;SDS011;11033;47.490;11.116;2024-01-30T10:54:30;3.22;;;1.25;;
21741;SDS011;11033;47.490;11.116;2024-01-30T10:56:57;2.88;;;1.60;;
21741;SDS011;11033;47.490;11.116;2024-01-30T10:59:25;3.47;;;1.40;;
21741;SDS011;11033;47.490;11.116;2024-01-30T11:01:50;2.30;;;1.50;;
21741;SDS011;11033;47.490;11.116;2024-01-30T11:04:16;1.40;;;1.20;;
21741;SDS011;11033;47.490;11.116;2024-01-30T11:06:42;5.72;;;1.30;;
21741;SDS011;11033;47.490;11.116;2024-01-30T11:09:10;4.72;;;1.17;;
21741;SDS011;11033;47.490;11.116;2024-01-30T11:14:15;2.72;;;0.90;;
21741;SDS011;11033;47.490;11.116;2024-01-30T11:16:41;1.17;;;0.73;;
21741;SDS011;11033;47.490;11.116;2024-01-30T11:19:10;1.77;;;0.80;;
21741;SDS011;11033;47.490;11.116;2024-01-30T11:21:42;3.65;;;1.10;;
21741;SDS011;11033;47.490;11.116;2024-01-30T11:24:07;0.90;;;0.65;;
21741;SDS011;11033;47.490;11.116;2024-01-30T11:26:33;3.08;;;1.00;;
21741;SDS011;11033;47.490;11.116;2024-01-30T11:28:59;6.85;;;1.60;;
21741;SDS011;11033;47.490;11.116;2024-01-30T11:31:28;1.67;;;1.10;;
21741;SDS011;11033;47.490;11.116;2024-01-30T11:33:53;2.40;;;1.20;;
21741;SDS011;11033;47.490;11.116;2024-01-30T11:36:21;1.00;;;1.00;;
21741;SDS011;11033;47.490;11.116;2024-01-30T11:38:50;1.52;;;1.30;;
21741;SDS011;11033;47.490;11.116;2024-01-30T11:41:15;2.43;;;1.37;;
21741;SDS011;11033;47.490;11.116;2024-01-30T11:43:41;1.65;;;1.55;;
21741;SDS011;11033;47.490;11.116;2024-01-30T11:46:06;1.47;;;1.20;;
21741;SDS011;11033;47.490;11.116;2024-01-30T11:48:32;2.95;;;1.48;;
21741;SDS011;11033;47.490;11.116;2024-01-30T11:50:57;1.93;;;1.80;;
21741;SDS011;11033;47.490;11.116;2024-01-30T11:53:23;5.25;;;5.05;;
21741;SDS011;11033;47.490;11.116;2024-01-30T11:55:51;1999.90;;;999.90;;
21741;SDS011;11033;47.490;11.116;2024-01-30T11:58:17;1999.90;;;999.90;;
21741;SDS011;11033;47.490;11.116;2024-01-30T12:00:43;1999.90;;;999.90;;
21741;SDS011;11033;47.490;11.116;2024-01-30T12:03:17;1999.90;;;999.90;;
21741;SDS011;11033;47.490;11.116;2024-01-30T12:05:42;1999.90;;;999.90;;
21741;SDS011;11033;47.490;11.116;2024-01-30T12:08:13;1999.90;;;999.90;;
21741;SDS011;11033;47.490;11.116;2024-01-30T12:10:40;14.90;;;14.10;;
21741;SDS011;11033;47.490;11.116;2024-01-30T12:13:06;8.03;;;7.63;;
21741;SDS011;11033;47.490;11.116;2024-01-30T12:15:31;3.25;;;3.00;;
21741;SDS011;11033;47.490;11.116;2024-01-30T12:18:06;2.33;;;2.10;;
21741;SDS011;11033;47.490;11.116;2024-01-30T12:20:32;5.30;;;5.07;;
21741;SDS011;11033;47.490;11.116;2024-01-30T12:22:57;10.75;;;10.25;;
21741;SDS011;11033;47.490;11.116;2024-01-30T12:25:23;15.65;;;10.55;;
21741;SDS011;11033;47.490;11.116;2024-01-30T12:27:51;3.67;;;2.97;;
21741;SDS011;11033;47.490;11.116;2024-01-30T12:30:19;2.50;;;2.40;;
21741;SDS011;11033;47.490;11.116;2024-01-30T12:32:45;3.00;;;2.20;;
21741;SDS011;11033;47.490;11.116;2024-01-30T12:35:13;2.90;;;2.70;;
21741;SDS011;11033;47.490;11.116;2024-01-30T12:37:40;3.63;;;2.40;;
21741;SDS011;11033;47.490;11.116;2024-01-30T12:40:07;2.70;;;2.13;;
21741;SDS011;11033;47.490;11.116;2024-01-30T12:42:34;2.28;;;2.15;;
21741;SDS011;11033;47.490;11.116;2024-01-30T12:44:59;2.67;;;1.95;;
21741;SDS011;11033;47.490;11.116;2024-01-30T12:47:25;4.43;;;1.80;;
21741;SDS011;11033;47.490;11.116;2024-01-30T12:49:51;2.90;;;2.00;;
21741;SDS011;11033;47.490;11.116;2024-01-30T12:52:20;7.57;;;2.38;;
21741;SDS011;11033;47.490;11.116;2024-01-30T12:54:49;2.33;;;2.00;;
21741;SDS011;11033;47.490;11.116;2024-01-30T12:57:15;5.78;;;2.30;;
21741;SDS011;11033;47.490;11.116;2024-01-30T12:59:41;7.38;;;3.65;;
21741;SDS011;11033;47.490;11.116;2024-01-30T13:02:07;9.50;;;3.83;;
21741;SDS011;11033;47.490;11.116;2024-01-30T13:04:33;5.47;;;4.00;;
21741;SDS011;11033;47.490;11.116;2024-01-30T13:06:58;6.55;;;3.53;;
21741;SDS011;11033;47.490;11.116;2024-01-30T13:09:25;5.85;;;3.25;;
21741;SDS011;11033;47.490;11.116;2024-01-30T13:11:50;6.30;;;3.05;;
21741;SDS011;11033;47.490;11.116;2024-01-30T13:14:16;9.02;;;4.70;;
21741;SDS011;11033;47.490;11.116;2024-01-30T13:16:42;4.82;;;4.28;;
21741;SDS011;11033;47.490;11.116;2024-01-30T13:19:08;3.67;;;3.38;;
21741;SDS011;11033;47.490;11.116;2024-01-30T13:21:33;6.75;;;3.40;;
21741;SDS011;11033;47.490;11.116;2024-01-30T13:23:58;5.97;;;3.20;;
21741;SDS011;11033;47.490;11.116;2024-01-30T13:26:23;7.27;;;4.17;;
21741;SDS011;11033;47.490;11.116;2024-01-30T13:28:49;4.27;;;3.70;;
21741;SDS011;11033;47.490;11.116;2024-01-30T13:31:14;4.55;;;2.80;;
21741;SDS011;11033;47.490;11.116;2024-01-30T13:33:40;4.55;;;3.00;;
21741;SDS011;11033;47.490;11.116;2024-01-30T13:36:06;3.30;;;3.00;;
21741;SDS011;11033;47.490;11.116;2024-01-30T13:38:32;4.68;;;3.30;;
21741;SDS011;11033;47.490;11.116;2024-01-30T13:40:58;6.35;;;3.40;;
21741;SDS011;11033;47.490;11.116;2024-01-30T13:43:23;3.30;;;3.00;;
21741;SDS011;11033;47.490;11.116;2024-01-30T13:45:48;3.17;;;2.60;;
21741;SDS011;11033;47.490;11.116;2024-01-30T13:48:14;2.97;;;2.67;;
21741;SDS011;11033;47.490;11.116;2024-01-30T13:50:39;4.40;;;2.80;;
21741;SDS011;11033;47.490;11.116;2024-01-30T13:53:04;6.38;;;3.40;;
21741;SDS011;11033;47.490;11.116;2024-01-30T13:55:29;5.50;;;3.63;;
21741;SDS011;11033;47.490;11.116;2024-01-30T13:57:55;6.70;;;3.45;;
21741;SDS011;11033;47.490;11.116;2024-01-30T14:00:21;5.40;;;4.90;;
21741;SDS011;11033;47.490;11.116;2024-01-30T14:02:47;7.60;;;6.40;;
21741;SDS011;11033;47.490;11.116;2024-01-30T14:05:12;9.48;;;7.50;;
21741;SDS011;11033;47.490;11.116;2024-01-30T14:07:38;6.70;;;5.53;;
21741;SDS011;11033;47.490;11.116;2024-01-30T14:10:09;6.23;;;5.03;;
21741;SDS011;11033;47.490;11.116;2024-01-30T14:12:35;5.28;;;4.60;;
21741;SDS011;11033;47.490;11.116;2024-01-30T14:15:01;10.57;;;4.80;;
21741;SDS011;11033;47.490;11.116;2024-01-30T14:17:26;13.27;;;4.83;;
21741;SDS011;11033;47.490;11.116;2024-01-30T14:19:51;10.85;;;4.82;;
21741;SDS011;11033;47.490;11.116;2024-01-30T14:22:16;6.57;;;4.40;;
21741;SDS011;11033;47.490;11.116;2024-01-30T14:24:42;9.38;;;4.60;;
21741;SDS011;11033;47.490;11.116;2024-01-30T14:27:07;9.80;;;5.90;;